createdAt,value
2019-03-28T00:01:20.099Z,3.08
2019-03-28T00:03:47.147Z,3.13
2019-03-28T00:06:14.189Z,3.21
2019-03-28T00:08:41.242Z,3.26
2019-03-28T00:11:08.635Z,3.32
2019-03-28T00:13:35.688Z,3.34
2019-03-28T00:16:02.767Z,3.37
2019-03-28T00:18:30.082Z,3.44
2019-03-28T00:20:57.438Z,3.57
2019-03-28T00:23:24.791Z,3.69
2019-03-28T00:25:53.046Z,3.76
2019-03-28T00:28:20.101Z,3.84
2019-03-28T00:30:47.143Z,3.88
2019-03-28T00:33:14.199Z,3.88
2019-03-28T00:35:41.312Z,3.89
2019-03-28T00:38:08.386Z,3.93
2019-03-28T00:40:35.423Z,3.99
2019-03-28T00:43:02.551Z,4.09
2019-03-28T00:45:29.761Z,4.13
2019-03-28T00:47:56.806Z,4.15
2019-03-28T00:50:23.865Z,4.19
2019-03-28T00:52:50.902Z,4.21
2019-03-28T00:55:18.277Z,4.25
2019-03-28T00:57:45.621Z,4.29
2019-03-28T01:00:12.972Z,4.32
2019-03-28T01:02:40.012Z,4.33
2019-03-28T01:05:07.064Z,4.30
2019-03-28T01:07:34.426Z,4.29
2019-03-28T01:10:01.778Z,4.25
2019-03-28T01:12:28.813Z,4.18
2019-03-28T01:14:56.138Z,4.09
2019-03-28T01:17:23.177Z,4.05
2019-03-28T01:19:50.605Z,4.00
2019-03-28T01:22:17.645Z,3.95
2019-03-28T01:24:45.009Z,3.93
2019-03-28T01:27:12.042Z,3.91
2019-03-28T01:29:39.092Z,3.89
2019-03-28T01:32:06.131Z,3.86
2019-03-28T01:34:33.357Z,3.85
2019-03-28T01:37:00.758Z,3.86
2019-03-28T01:39:27.877Z,3.86
2019-03-28T01:41:54.923Z,3.85
2019-03-28T01:44:22.294Z,3.84
2019-03-28T01:46:49.384Z,3.79
2019-03-28T01:49:17.370Z,3.78
2019-03-28T01:51:44.410Z,3.78
2019-03-28T01:54:11.445Z,3.78
2019-03-28T01:56:38.813Z,3.76
2019-03-28T01:59:06.171Z,3.75
2019-03-28T02:01:33.219Z,3.74
2019-03-28T02:04:00.573Z,3.76
2019-03-28T02:06:27.626Z,3.77
2019-03-28T02:08:54.974Z,3.80
2019-03-28T02:11:22.328Z,3.82
2019-03-28T02:13:50.429Z,3.82
2019-03-28T02:16:17.755Z,3.85
2019-03-28T02:18:44.794Z,3.90
2019-03-28T02:21:12.094Z,3.92
2019-03-28T02:23:39.130Z,3.97
2019-03-28T02:26:06.462Z,3.97
2019-03-28T02:28:33.506Z,3.98
2019-03-28T02:31:00.862Z,4.02
2019-03-28T02:33:28.237Z,4.05
2019-03-28T02:35:55.284Z,4.04
2019-03-28T02:38:22.565Z,4.03
2019-03-28T02:40:50.694Z,4.02
2019-03-28T02:43:18.055Z,4.04
2019-03-28T02:45:46.432Z,4.07
2019-03-28T02:48:13.788Z,4.07
2019-03-28T02:50:41.139Z,4.05
2019-03-28T02:53:08.495Z,4.02
2019-03-28T02:55:35.546Z,4.04
2019-03-28T02:58:02.587Z,4.04
2019-03-28T03:00:29.638Z,4.03
2019-03-28T03:02:56.739Z,4.02
2019-03-28T03:05:23.781Z,3.94
2019-03-28T03:07:50.810Z,3.87
2019-03-28T03:10:17.893Z,3.79
2019-03-28T03:12:45.205Z,3.71
2019-03-28T03:15:12.260Z,3.62
2019-03-28T03:17:39.297Z,3.65
2019-03-28T03:20:06.327Z,3.66
2019-03-28T03:22:33.682Z,3.67
2019-03-28T03:25:00.713Z,3.68
2019-03-28T03:27:27.778Z,3.54
2019-03-28T03:29:54.794Z,3.46
2019-03-28T03:32:22.096Z,3.38
2019-03-28T03:34:49.156Z,3.31
2019-03-28T03:37:16.480Z,3.23
2019-03-28T03:39:43.840Z,3.20
2019-03-28T03:42:11.853Z,3.16
2019-03-28T03:44:38.969Z,3.13
2019-03-28T03:47:06.314Z,3.11
2019-03-28T03:49:33.415Z,3.08
2019-03-28T03:52:00.471Z,2.98
2019-03-28T03:54:27.496Z,2.87
2019-03-28T03:56:54.816Z,2.72
2019-03-28T03:59:21.858Z,2.55
2019-03-28T04:01:49.234Z,2.44
2019-03-28T04:04:16.572Z,2.34
2019-03-28T04:06:43.622Z,2.25
2019-03-28T04:09:10.917Z,2.19
2019-03-28T04:11:38.245Z,2.15
2019-03-28T04:14:05.530Z,2.21
2019-03-28T04:16:32.938Z,2.37
2019-03-28T04:19:01.209Z,2.53
2019-03-28T04:21:28.264Z,2.58
2019-03-28T04:23:55.803Z,2.52
2019-03-28T04:26:23.104Z,2.41
2019-03-28T04:28:50.426Z,2.18
2019-03-28T04:31:18.133Z,1.98
2019-03-28T04:33:45.120Z,1.88
2019-03-28T04:36:12.398Z,1.80
2019-03-28T04:38:39.445Z,1.73
2019-03-28T04:41:06.795Z,1.69
2019-03-28T04:43:34.147Z,1.63
2019-03-28T04:46:01.181Z,1.57
2019-03-28T04:48:28.497Z,1.48
2019-03-28T04:50:55.527Z,1.36
2019-03-28T04:53:23.555Z,1.31
2019-03-28T04:55:50.925Z,1.26
2019-03-28T04:58:17.975Z,1.26
2019-03-28T05:00:45.077Z,1.31
2019-03-28T05:03:12.134Z,1.36
2019-03-28T05:05:39.163Z,1.38
2019-03-28T05:08:06.577Z,1.41
2019-03-28T05:10:33.678Z,1.44
2019-03-28T05:13:00.976Z,1.49
2019-03-28T05:15:28.009Z,1.52
2019-03-28T05:17:55.377Z,1.54
2019-03-28T05:20:22.413Z,1.58
2019-03-28T05:22:49.461Z,1.65
2019-03-28T05:25:16.747Z,1.76
2019-03-28T05:27:44.085Z,1.89
2019-03-28T05:30:11.359Z,2.05
2019-03-28T05:32:38.695Z,2.25
2019-03-28T05:35:06.065Z,2.46
2019-03-28T05:37:33.111Z,2.65
2019-03-28T05:40:00.453Z,2.87
2019-03-28T05:42:27.823Z,2.98
2019-03-28T05:44:55.163Z,3.08
2019-03-28T05:47:22.518Z,3.21
2019-03-28T05:49:49.872Z,3.40
2019-03-28T05:52:16.917Z,3.83
2019-03-28T05:54:43.967Z,4.36
2019-03-28T05:57:10.998Z,4.67
2019-03-28T05:59:38.048Z,4.87
2019-03-28T06:02:05.079Z,5.13
2019-03-28T06:04:32.132Z,5.90
2019-03-28T06:06:59.512Z,6.85
2019-03-28T06:09:26.869Z,8.26
2019-03-28T06:11:54.608Z,9.49
2019-03-28T06:14:22.216Z,10.20
2019-03-28T06:16:49.546Z,10.97
2019-03-28T06:19:16.927Z,11.63
2019-03-28T06:21:43.969Z,12.25
2019-03-28T06:24:11.323Z,12.24
2019-03-28T06:26:38.610Z,12.66
2019-03-28T06:29:08.479Z,13.10
2019-03-28T06:31:34.723Z,13.63
2019-03-28T06:34:01.775Z,13.87
2019-03-28T06:36:29.105Z,14.24
2019-03-28T06:38:56.159Z,14.45
2019-03-28T06:41:23.526Z,14.60
2019-03-28T06:43:50.584Z,14.59
2019-03-28T06:46:17.910Z,14.71
2019-03-28T06:48:45.267Z,15.01
2019-03-28T06:51:12.309Z,15.08
2019-03-28T06:53:39.355Z,15.29
2019-03-28T06:56:07.636Z,15.70
2019-03-28T06:58:34.690Z,15.84
2019-03-28T07:01:01.727Z,16.38
2019-03-28T07:03:29.106Z,16.92
2019-03-28T07:05:56.447Z,17.44
2019-03-28T07:08:25.363Z,17.25
2019-03-28T07:10:52.793Z,17.41
2019-03-28T07:13:19.830Z,17.28
2019-03-28T07:15:47.991Z,17.21
2019-03-28T07:18:15.288Z,17.15
2019-03-28T07:20:42.342Z,17.58
2019-03-28T07:23:09.379Z,17.75
2019-03-28T07:25:36.743Z,17.67
2019-03-28T07:28:06.333Z,17.41
2019-03-28T07:30:33.169Z,17.34
2019-03-28T07:33:00.207Z,17.04
2019-03-28T07:35:27.257Z,17.24
2019-03-28T07:37:54.298Z,17.02
2019-03-28T07:40:21.352Z,17.09
2019-03-28T07:42:48.384Z,17.60
2019-03-28T07:45:15.439Z,18.01
2019-03-28T07:47:42.468Z,18.32
2019-03-28T07:50:09.868Z,17.83
2019-03-28T07:52:37.222Z,17.78
2019-03-28T07:55:04.409Z,17.29
2019-03-28T07:57:32.087Z,17.27
2019-03-28T08:00:04.529Z,16.33
2019-03-28T08:02:29.526Z,16.07
2019-03-28T08:04:56.860Z,15.82
2019-03-28T08:07:23.894Z,15.86
2019-03-28T08:09:51.259Z,15.70
2019-03-28T08:12:23.041Z,15.63
2019-03-28T08:14:47.365Z,16.08
2019-03-28T08:17:14.396Z,16.37
2019-03-28T08:19:42.421Z,15.98
2019-03-28T08:22:09.460Z,16.34
2019-03-28T08:24:36.494Z,16.74
2019-03-28T08:27:03.875Z,16.99
2019-03-28T08:29:30.915Z,17.24
2019-03-28T08:31:58.278Z,17.45
2019-03-28T08:34:25.317Z,17.57
2019-03-28T08:36:52.679Z,17.40
2019-03-28T08:39:20.112Z,16.95
2019-03-28T08:41:48.643Z,17.06
2019-03-28T08:44:15.930Z,16.54
2019-03-28T08:46:42.984Z,16.54
2019-03-28T08:49:10.014Z,16.97
2019-03-28T08:51:37.063Z,16.77
2019-03-28T08:54:04.370Z,15.82
2019-03-28T08:56:31.424Z,15.52
2019-03-28T08:58:58.776Z,15.34
2019-03-28T09:01:25.825Z,15.45
2019-03-28T09:03:53.297Z,15.72
2019-03-28T09:06:20.639Z,15.29
2019-03-28T09:08:47.668Z,15.73
2019-03-28T09:11:15.958Z,16.01
2019-03-28T09:13:42.998Z,16.13
2019-03-28T09:16:10.091Z,16.44
2019-03-28T09:18:37.124Z,16.71
2019-03-28T09:21:04.431Z,16.97
2019-03-28T09:23:31.811Z,16.25
2019-03-28T09:25:59.933Z,16.52
2019-03-28T09:28:26.968Z,16.79
2019-03-28T09:30:54.032Z,17.19
2019-03-28T09:33:21.334Z,17.47
2019-03-28T09:35:48.477Z,17.43
2019-03-28T09:38:15.736Z,17.18
2019-03-28T09:40:43.109Z,17.03
2019-03-28T09:43:10.147Z,17.28
2019-03-28T09:45:37.504Z,17.36
2019-03-28T09:48:04.534Z,17.15
2019-03-28T09:50:31.898Z,16.72
2019-03-28T09:52:59.275Z,16.71
2019-03-28T09:55:26.307Z,17.08
2019-03-28T09:57:53.357Z,16.70
2019-03-28T10:00:20.398Z,16.62
2019-03-28T10:02:47.769Z,16.87
2019-03-28T10:05:14.804Z,17.06
2019-03-28T10:07:42.153Z,16.54
2019-03-28T10:10:09.447Z,16.80
2019-03-28T10:12:36.523Z,16.35
2019-03-28T10:15:03.567Z,16.68
2019-03-28T10:17:30.962Z,17.20
2019-03-28T10:19:58.318Z,17.44
2019-03-28T10:22:25.680Z,18.07
2019-03-28T10:24:52.726Z,17.52
2019-03-28T10:27:20.080Z,17.15
2019-03-28T10:29:47.199Z,17.81
2019-03-28T10:32:14.572Z,17.57
2019-03-28T10:34:41.604Z,16.97
2019-03-28T10:37:08.695Z,16.08
2019-03-28T10:39:36.061Z,16.19
2019-03-28T10:42:03.154Z,15.95
2019-03-28T10:44:30.569Z,16.30
2019-03-28T10:46:57.930Z,16.65
2019-03-28T10:49:25.280Z,17.08
2019-03-28T10:51:53.763Z,17.32
2019-03-28T10:54:21.068Z,17.00
2019-03-28T10:56:52.182Z,17.41
2019-03-28T10:59:23.630Z,17.96
2019-03-28T11:01:50.492Z,19.12
2019-03-28T11:04:15.859Z,18.61
2019-03-28T11:06:43.316Z,17.88
2019-03-28T11:09:10.388Z,17.19
2019-03-28T11:11:37.474Z,17.06
2019-03-28T11:14:04.550Z,16.83
2019-03-28T11:16:31.923Z,15.74
2019-03-28T11:18:58.995Z,15.30
2019-03-28T11:21:26.426Z,15.77
2019-03-28T11:23:53.889Z,16.59
2019-03-28T11:26:21.012Z,16.49
2019-03-28T11:28:48.413Z,16.16
2019-03-28T11:31:15.845Z,16.42
2019-03-28T11:33:43.309Z,16.51
2019-03-28T11:36:10.659Z,16.55
2019-03-28T11:38:37.745Z,16.99
2019-03-28T11:41:05.162Z,17.54
2019-03-28T11:43:32.261Z,17.74
2019-03-28T11:45:59.667Z,17.42
2019-03-28T11:48:27.127Z,17.97
2019-03-28T11:50:54.203Z,17.50
2019-03-28T11:53:21.292Z,17.09
2019-03-28T11:55:49.084Z,16.95
2019-03-28T11:58:16.342Z,16.72
2019-03-28T12:00:43.678Z,16.20
2019-03-28T12:03:10.771Z,16.27
2019-03-28T12:05:37.847Z,15.83
2019-03-28T12:08:04.935Z,15.67
2019-03-28T12:10:32.014Z,15.07
2019-03-28T12:12:59.449Z,14.40
2019-03-28T12:15:26.530Z,13.86
2019-03-28T12:17:53.954Z,13.67
2019-03-28T12:20:21.041Z,13.51
2019-03-28T12:22:49.515Z,13.19
2019-03-28T12:25:16.944Z,12.93
2019-03-28T12:27:44.023Z,12.72
2019-03-28T12:30:11.449Z,12.76
2019-03-28T12:32:38.933Z,12.85
2019-03-28T12:35:06.083Z,12.70
2019-03-28T12:37:34.564Z,12.84
2019-03-28T12:40:01.752Z,12.93
2019-03-28T12:42:28.842Z,12.99
2019-03-28T12:44:57.280Z,13.04
2019-03-28T12:47:24.705Z,13.20
2019-03-28T12:49:52.043Z,13.38
2019-03-28T12:52:19.117Z,13.41
2019-03-28T12:54:46.208Z,13.25
2019-03-28T12:57:14.590Z,13.41
2019-03-28T12:59:41.813Z,13.56
2019-03-28T13:02:08.888Z,13.99
2019-03-28T13:04:36.271Z,14.41
2019-03-28T13:07:03.345Z,14.50
2019-03-28T13:09:30.766Z,14.78
2019-03-28T13:11:58.147Z,14.82
2019-03-28T13:14:25.237Z,14.18
2019-03-28T13:16:52.655Z,13.57
2019-03-28T13:19:20.010Z,13.41
2019-03-28T13:21:48.466Z,13.10
2019-03-28T13:24:15.948Z,13.11
2019-03-28T13:26:43.025Z,13.24
2019-03-28T13:29:10.231Z,13.55
2019-03-28T13:31:37.364Z,14.13
2019-03-28T13:34:04.453Z,14.62
2019-03-28T13:36:31.536Z,14.85
2019-03-28T13:38:58.925Z,14.58
2019-03-28T13:41:26.113Z,14.17
2019-03-28T13:43:53.304Z,13.80
2019-03-28T13:46:20.708Z,13.39
2019-03-28T13:48:47.799Z,13.38
2019-03-28T13:51:14.871Z,13.05
2019-03-28T13:53:41.966Z,12.90
2019-03-28T13:56:09.400Z,12.80
2019-03-28T13:58:36.849Z,12.87
2019-03-28T14:01:04.006Z,13.00
2019-03-28T14:03:31.090Z,13.06
2019-03-28T14:05:58.511Z,13.02
2019-03-28T14:08:25.597Z,12.88
2019-03-28T14:10:53.007Z,12.75
2019-03-28T14:13:20.080Z,12.65
2019-03-28T14:15:48.539Z,12.78
2019-03-28T14:18:15.617Z,12.61
2019-03-28T14:20:42.927Z,12.72
2019-03-28T14:23:10.527Z,12.68
2019-03-28T14:25:37.958Z,12.76
2019-03-28T14:28:05.034Z,12.82
2019-03-28T14:30:32.465Z,12.72
2019-03-28T14:33:10.601Z,12.90
2019-03-28T14:35:29.021Z,12.90
2019-03-28T14:37:56.378Z,12.88
2019-03-28T14:40:23.854Z,12.72
2019-03-28T14:42:51.308Z,12.51
2019-03-28T14:45:18.407Z,12.50
2019-03-28T14:47:45.485Z,12.50
2019-03-28T14:50:12.692Z,12.41
2019-03-28T14:52:39.730Z,12.40
2019-03-28T14:55:07.141Z,12.34
2019-03-28T14:57:34.217Z,12.40
2019-03-28T15:00:01.309Z,12.47
2019-03-28T15:02:28.897Z,12.47
2019-03-28T15:04:56.356Z,12.45
2019-03-28T15:07:23.424Z,12.39
2019-03-28T15:09:50.887Z,12.29
2019-03-28T15:12:17.956Z,12.24
2019-03-28T15:14:45.046Z,12.18
2019-03-28T15:17:12.127Z,12.13
2019-03-28T15:19:39.217Z,12.20
2019-03-28T15:22:06.285Z,12.20
2019-03-28T15:24:33.360Z,12.12
2019-03-28T15:27:01.129Z,12.03
2019-03-28T15:29:28.599Z,11.97
2019-03-28T15:31:55.678Z,11.81
2019-03-28T15:34:22.752Z,11.71
2019-03-28T15:36:49.842Z,11.64
2019-03-28T15:39:16.917Z,11.67
2019-03-28T15:41:44.272Z,11.62
2019-03-28T15:44:11.783Z,11.60
2019-03-28T15:46:38.878Z,11.53
2019-03-28T15:49:06.290Z,11.59
2019-03-28T15:51:33.771Z,11.62
2019-03-28T15:54:01.230Z,11.64
2019-03-28T15:56:28.661Z,11.54
2019-03-28T15:58:56.046Z,11.44
2019-03-28T16:01:23.502Z,11.33
2019-03-28T16:03:53.347Z,11.30
2019-03-28T16:06:22.309Z,11.27
2019-03-28T16:08:48.843Z,11.24
2019-03-28T16:11:15.924Z,11.31
2019-03-28T16:13:43.424Z,11.37
2019-03-28T16:16:10.570Z,11.42
2019-03-28T16:18:37.657Z,11.45
2019-03-28T16:21:04.832Z,11.45
2019-03-28T16:23:31.918Z,11.39
2019-03-28T16:25:59.019Z,11.34
2019-03-28T16:28:28.152Z,11.31
2019-03-28T16:30:54.910Z,11.19
2019-03-28T16:33:21.995Z,11.11
2019-03-28T16:35:49.350Z,11.00
2019-03-28T16:38:17.794Z,10.95
2019-03-28T16:40:45.279Z,10.91
2019-03-28T16:43:12.733Z,10.84
2019-03-28T16:45:40.192Z,10.71
2019-03-28T16:48:07.624Z,10.58
2019-03-28T16:50:35.081Z,10.50
2019-03-28T16:53:02.198Z,10.47
2019-03-28T16:55:29.284Z,10.42
2019-03-28T16:57:56.762Z,10.34
2019-03-28T17:00:23.837Z,10.26
2019-03-28T17:02:51.270Z,10.20
2019-03-28T17:05:18.350Z,10.16
2019-03-28T17:07:45.752Z,10.12
2019-03-28T17:10:12.831Z,10.09
2019-03-28T17:12:40.179Z,10.07
2019-03-28T17:15:07.611Z,10.07
2019-03-28T17:17:38.316Z,10.00
2019-03-28T17:20:03.650Z,9.91
2019-03-28T17:22:31.107Z,9.84
2019-03-28T17:24:58.195Z,9.76
2019-03-28T17:27:25.291Z,9.68
2019-03-28T17:29:52.663Z,9.63
2019-03-28T17:32:20.122Z,9.59
2019-03-28T17:34:47.578Z,9.55
2019-03-28T17:37:15.033Z,9.53
2019-03-28T17:39:42.111Z,9.53
2019-03-28T17:42:10.588Z,9.53
2019-03-28T17:44:37.669Z,9.53
2019-03-28T17:47:05.072Z,9.55
2019-03-28T17:49:32.154Z,9.53
2019-03-28T17:51:59.471Z,9.53
2019-03-28T17:54:26.554Z,9.54
2019-03-28T17:56:53.713Z,9.55
2019-03-28T17:59:20.862Z,9.57
2019-03-28T18:01:48.282Z,9.55
2019-03-28T18:04:22.649Z,9.52
2019-03-28T18:06:44.268Z,9.49
2019-03-28T18:09:11.640Z,9.45
2019-03-28T18:11:39.132Z,9.38
2019-03-28T18:14:06.588Z,9.32
2019-03-28T18:16:34.223Z,9.33
2019-03-28T18:19:01.384Z,9.26
2019-03-28T18:21:29.539Z,9.14
2019-03-28T18:23:57.054Z,9.07
2019-03-28T18:26:24.171Z,9.01
2019-03-28T18:28:51.238Z,9.00
2019-03-28T18:31:18.320Z,8.99
2019-03-28T18:33:45.419Z,8.95
2019-03-28T18:36:12.496Z,8.96
2019-03-28T18:38:39.585Z,8.97
2019-03-28T18:41:06.759Z,8.95
2019-03-28T18:43:34.154Z,8.98
2019-03-28T18:46:01.591Z,8.99
2019-03-28T18:48:35.930Z,9.01
2019-03-28T18:50:57.837Z,9.02
2019-03-28T18:53:24.928Z,9.04
2019-03-28T18:55:52.345Z,9.02
2019-03-28T18:58:19.445Z,8.98
2019-03-28T19:00:48.267Z,8.95
2019-03-28T19:03:15.317Z,8.94
2019-03-28T19:05:42.684Z,8.97
2019-03-28T19:08:10.063Z,8.98
2019-03-28T19:10:37.862Z,9.00
2019-03-28T19:13:05.597Z,9.02
2019-03-28T19:15:32.663Z,9.03
2019-03-28T19:17:59.995Z,9.04
2019-03-28T19:20:28.356Z,9.05
2019-03-28T19:22:55.809Z,9.06
2019-03-28T19:25:23.266Z,9.05
2019-03-28T19:27:50.360Z,9.07
2019-03-28T19:30:17.441Z,9.06
2019-03-28T19:32:44.534Z,9.04
2019-03-28T19:35:11.604Z,9.06
2019-03-28T19:37:38.948Z,9.05
2019-03-28T19:40:07.029Z,9.02
2019-03-28T19:42:34.447Z,9.00
2019-03-28T19:45:01.544Z,8.99
2019-03-28T19:47:28.833Z,8.98
2019-03-28T19:49:55.884Z,8.95
2019-03-28T19:52:22.967Z,8.95
2019-03-28T19:54:50.074Z,8.95
2019-03-28T19:57:17.154Z,8.95
2019-03-28T19:59:44.265Z,8.92
2019-03-28T20:02:14.093Z,8.87
2019-03-28T20:04:40.461Z,8.84
2019-03-28T20:07:20.982Z,8.76
2019-03-28T20:09:36.989Z,8.72
2019-03-28T20:12:05.375Z,8.67
2019-03-28T20:14:33.029Z,8.64
2019-03-28T20:17:00.486Z,8.65
2019-03-28T20:19:28.936Z,8.65
2019-03-28T20:21:59.477Z,8.69
2019-03-28T20:24:26.206Z,8.74
2019-03-28T20:26:54.369Z,8.72
2019-03-28T20:29:21.457Z,8.74
2019-03-28T20:31:48.819Z,8.72
2019-03-28T20:34:15.910Z,8.74
2019-03-28T20:36:44.183Z,8.74
2019-03-28T20:39:11.476Z,8.69
2019-03-28T20:41:38.725Z,8.66
2019-03-28T20:44:05.819Z,8.66
2019-03-28T20:46:33.254Z,8.65
2019-03-28T20:49:00.711Z,8.66
2019-03-28T20:51:28.090Z,8.65
2019-03-28T20:53:55.531Z,8.66
2019-03-28T20:56:23.118Z,8.67
2019-03-28T20:58:50.163Z,8.67
2019-03-28T21:01:17.258Z,8.68
2019-03-28T21:03:44.331Z,8.68
2019-03-28T21:06:15.487Z,8.68
2019-03-28T21:08:40.577Z,8.67
2019-03-28T21:11:07.670Z,8.69
2019-03-28T21:13:35.356Z,8.70
2019-03-28T21:16:03.357Z,8.70
2019-03-28T21:18:30.449Z,8.67
2019-03-28T21:20:57.871Z,8.65
2019-03-28T21:23:25.216Z,8.65
2019-03-28T21:25:52.299Z,8.66
2019-03-28T21:28:19.336Z,8.66
2019-03-28T21:30:47.958Z,8.68
2019-03-28T21:33:15.741Z,8.67
2019-03-28T21:35:43.089Z,8.70
2019-03-28T21:38:10.443Z,8.71
2019-03-28T21:40:38.463Z,8.67
2019-03-28T21:43:05.504Z,8.69
2019-03-28T21:45:32.563Z,8.65
2019-03-28T21:47:59.868Z,8.65
2019-03-28T21:50:27.614Z,8.65
2019-03-28T21:52:55.005Z,8.60
2019-03-28T21:55:22.052Z,8.55
2019-03-28T21:57:49.085Z,8.51
2019-03-28T22:00:16.437Z,8.47
2019-03-28T22:02:43.472Z,8.38
2019-03-28T22:05:10.584Z,8.28
2019-03-28T22:07:37.613Z,8.12
2019-03-28T22:10:08.352Z,7.98
2019-03-28T22:12:33.746Z,7.85
2019-03-28T22:15:01.081Z,7.72
2019-03-28T22:17:28.538Z,7.64
2019-03-28T22:19:55.600Z,7.54
2019-03-28T22:22:22.618Z,7.45
2019-03-28T22:24:49.989Z,7.35
2019-03-28T22:27:17.039Z,7.26
2019-03-28T22:29:44.316Z,7.18
2019-03-28T22:32:11.961Z,7.14
2019-03-28T22:34:39.109Z,7.10
2019-03-28T22:37:06.409Z,7.06
2019-03-28T22:39:33.433Z,7.05
2019-03-28T22:42:00.775Z,7.06
2019-03-28T22:44:27.808Z,7.06
2019-03-28T22:46:55.161Z,7.06
2019-03-28T22:49:22.193Z,7.04
2019-03-28T22:51:49.561Z,7.04
2019-03-28T22:54:16.591Z,7.07
2019-03-28T22:56:43.989Z,7.16
2019-03-28T22:59:11.989Z,7.23
2019-03-28T23:01:39.129Z,7.29
2019-03-28T23:04:06.645Z,7.36
2019-03-28T23:06:33.698Z,7.40
2019-03-28T23:09:00.733Z,7.45
2019-03-28T23:11:29.399Z,7.49
2019-03-28T23:13:56.432Z,7.51
2019-03-28T23:16:23.779Z,7.54
2019-03-28T23:18:51.411Z,7.57
2019-03-28T23:21:18.542Z,7.57
2019-03-28T23:23:45.898Z,7.59
2019-03-28T23:26:13.190Z,7.57
2019-03-28T23:28:40.504Z,7.57
2019-03-28T23:31:07.625Z,7.60
2019-03-28T23:33:35.026Z,7.63
2019-03-28T23:36:02.073Z,7.67
2019-03-28T23:38:29.418Z,7.69
2019-03-28T23:40:56.768Z,7.65
2019-03-28T23:43:23.804Z,7.72
2019-03-28T23:45:50.859Z,7.73
2019-03-28T23:48:18.136Z,7.67
2019-03-28T23:50:45.170Z,7.64
2019-03-28T23:53:12.527Z,7.56
2019-03-28T23:55:39.873Z,7.57
2019-03-28T23:58:07.228Z,7.59
